Aérodrome :
LOGIN :

S'inscrire | Disclaimer

   EN    FR    IT 

 










Légende :    VFR   VFR Marginal   IFR   IFR Intensif   IFR Très Intensif
Visi : 
Plafond : 
>= 8 km
>= 3000ft
5 à 8 km
1000 à 3000 ft
1500m à 5 km
500 à 1000 ft
800 à 1500m
200 à 500 ft
< 800m
< 200 ft
Symboles :   Orages  Brouillard  Fortes neiges  Fortes précipitations  Vent > 20 kt
SIGMETs :   Divers  Orages  Givrage  Turbulence  Onde Orograph.  Cendres Volcan.






- Altitude de l'aérodrome : 1906 ft
- Code IATA : INN


LOWI - Innsbruck

DERNIER METAR :
  • 231920Z VRB02KT CAVOK 22/15 Q1014 NOSIG

METARs EXPIRÉS :
  • 231850Z VRB02KT CAVOK 24/15 Q1014 NOSIG
  • 231820Z 08004KT 020V130 CAVOK 24/15 Q1014 NOSIG
  • 231750Z 06006KT 020V090 CAVOK 25/15 Q1014 NOSIG
  • 231720Z 06009KT 030V100 9999 FEW080 26/15 Q1014 NOSIG
  • 231650Z 07008KT 040V110 9999 FEW080 27/14 Q1014 NOSIG

TAF TAF LOWI
Valide du 23 à 18h jusqu'au 24 à 18h UTC


231715Z 2318/2418 09008KT CAVOK TX28/2414Z TN14/2404Z
BECMG 2318/2320 27004KT
BECMG 2411/2413 12010G25KT FEW060CB SCT080
PROB40
TEMPO 2414/2418 30015G30KT TSRA



MET'MAP, la Météo Aéronautique d'un coup d'oeil ! - Copyright ORBIFLY Décembre 2007 - Disclaimer

ORBIFLY MET'MAP TEAM :

Programmation & Développement : Alexandra Zaïnal
Sur une idée originale de : Baudouin d'Aumeries
Assistance à la programmation : Marc-Olivier Méhu
Soutien technique & logistique : Manuel Goepfert

Contact : metmap@orbifly.com




SOURCES & CREDITS :

   NOAA